Terminal Aerodrome Forecast
Issued by NWS

Home | Current Version | Previous Version | Text Only | Print | Product List | Glossary On
Versions: 1 2 3 4 5 6 7 8 9 10 11 12
802
FTUS46 KMFR 240525
TAFRBG
TAF
KRBG 240525Z 2406/2506 01004KT P6SM BKN050
     FM240900 VRB03KT P6SM SCT020 BKN050
     FM241200 00000KT P6SM BKN020 OVC035
     FM241700 VRB03KT P6SM SCT025 SCT050
     FM242100 35008KT P6SM VCSH BKN050=

USA.gov is the U.S. government's official web portal to all federal, state and local government web resources and services.